createdAt,value
2023-02-22T00:01:50.859Z,94.40
2023-02-22T00:03:53.906Z,94.50
2023-02-22T00:05:59.665Z,94.70
2023-02-22T00:08:02.386Z,94.30
2023-02-22T00:10:09.113Z,94.30
2023-02-22T00:12:11.908Z,94.30
2023-02-22T00:14:14.605Z,94.40
2023-02-22T00:16:20.532Z,94.40
2023-02-22T00:18:27.850Z,94.40
2023-02-22T00:20:30.834Z,94.40
2023-02-22T00:22:33.582Z,94.40
2023-02-22T00:24:36.278Z,94.40
2023-02-22T00:26:39.109Z,94.40
2023-02-22T00:28:42.418Z,94.40
2023-02-22T00:30:45.299Z,94.40
2023-02-22T00:32:48.305Z,94.50
2023-02-22T00:34:54.512Z,94.50
2023-02-22T00:36:57.249Z,94.50
2023-02-22T00:38:59.975Z,94.50
2023-02-22T00:41:02.745Z,94.50
2023-02-22T00:43:07.157Z,94.50
2023-02-22T00:45:10.858Z,94.30
2023-02-22T00:47:13.645Z,94.40
2023-02-22T00:49:16.663Z,94.40
2023-02-22T00:51:20.706Z,94.40
2023-02-22T00:53:24.571Z,94.40
2023-02-22T00:55:29.370Z,94.30
2023-02-22T00:57:34.567Z,94.30
2023-02-22T00:59:37.271Z,94.30
2023-02-22T01:01:40.128Z,94.30
2023-02-22T01:03:42.922Z,94.30
2023-02-22T01:05:45.872Z,94.30
2023-02-22T01:07:50.881Z,94.60
2023-02-22T01:09:53.698Z,94.30
2023-02-22T01:11:57.678Z,94.40
2023-02-22T01:14:00.548Z,94.30
2023-02-22T01:16:03.312Z,94.30
2023-02-22T01:18:07.065Z,94.30
2023-02-22T01:20:12.678Z,94.30
2023-02-22T01:22:15.412Z,94.30
2023-02-22T01:24:19.626Z,94.30
2023-02-22T01:26:22.341Z,94.30
2023-02-22T01:28:25.459Z,94.30
2023-02-22T01:30:30.491Z,94.40
2023-02-22T01:32:33.668Z,94.40
2023-02-22T01:34:36.388Z,94.40
2023-02-22T01:36:39.972Z,94.40
2023-02-22T01:38:42.847Z,94.40
2023-02-22T01:40:49.541Z,94.40
2023-02-22T01:42:54.827Z,94.40
2023-02-22T01:45:34.810Z,94.40
2023-02-22T01:47:37.873Z,94.50
2023-02-22T01:49:44.451Z,94.40
2023-02-22T01:51:49.629Z,94.50
2023-02-22T01:53:55.525Z,94.50
2023-02-22T01:56:00.475Z,94.50
2023-02-22T01:58:04.369Z,94.40
2023-02-22T02:00:10.981Z,94.40
2023-02-22T02:02:15.510Z,94.40
2023-02-22T02:04:25.368Z,94.40
2023-02-22T02:06:29.984Z,94.40
2023-02-22T02:08:37.778Z,94.40
2023-02-22T02:10:41.680Z,94.50
2023-02-22T02:12:48.689Z,94.50
2023-02-22T02:14:51.577Z,94.50
2023-02-22T02:16:56.186Z,94.50
2023-02-22T02:18:59.145Z,94.50
2023-02-22T02:21:33.999Z,94.50
2023-02-22T02:23:59.963Z,94.40
2023-02-22T02:26:35.154Z,94.50
2023-02-22T02:29:07.513Z,94.50
2023-02-22T02:31:54.288Z,94.50
2023-02-22T02:34:03.100Z,94.50
2023-02-22T02:36:11.858Z,94.50
2023-02-22T02:38:23.643Z,94.50
2023-02-22T02:40:30.503Z,94.50
2023-02-22T02:42:39.135Z,94.50
2023-02-22T02:44:48.014Z,94.50
2023-02-22T02:46:57.639Z,94.50
2023-02-22T02:49:04.586Z,94.50
2023-02-22T02:51:14.248Z,94.60
2023-02-22T02:53:21.637Z,94.60
2023-02-22T02:55:25.020Z,94.60
2023-02-22T02:57:27.859Z,94.50
2023-02-22T02:59:33.104Z,94.50
2023-02-22T03:01:58.782Z,94.50
2023-02-22T03:04:20.328Z,94.60
2023-02-22T03:06:37.867Z,94.60
2023-02-22T03:08:44.592Z,94.50
2023-02-22T03:10:56.395Z,94.90
2023-02-22T03:13:06.235Z,94.60
2023-02-22T03:15:21.861Z,94.50
2023-02-22T03:17:33.310Z,94.60
2023-02-22T03:19:41.393Z,94.50
2023-02-22T03:21:50.935Z,94.50
2023-02-22T03:24:06.440Z,94.60
2023-02-22T03:26:13.930Z,94.50
2023-02-22T03:28:20.638Z,94.60
2023-02-22T03:30:28.520Z,94.50
2023-02-22T03:32:38.665Z,94.40
2023-02-22T03:34:45.863Z,94.50
2023-02-22T03:36:51.918Z,94.50
2023-02-22T03:38:56.436Z,94.50
2023-02-22T03:41:03.713Z,94.50
2023-02-22T03:43:10.063Z,94.40
2023-02-22T03:45:16.295Z,94.50
2023-02-22T03:47:24.143Z,94.50
2023-02-22T03:49:35.945Z,94.50
2023-02-22T03:51:39.605Z,94.60
2023-02-22T03:53:44.535Z,94.60
2023-02-22T03:55:51.572Z,94.60
2023-02-22T03:57:58.493Z,94.50
2023-02-22T04:00:01.420Z,94.50
2023-02-22T04:02:04.411Z,94.50
2023-02-22T04:04:07.207Z,94.40
2023-02-22T04:06:12.418Z,94.40
2023-02-22T04:08:15.488Z,94.40
2023-02-22T04:10:18.571Z,94.40
2023-02-22T04:12:21.271Z,94.30
2023-02-22T04:14:24.059Z,94.30
2023-02-22T04:16:26.819Z,94.20
2023-02-22T04:18:29.531Z,94.30
2023-02-22T04:20:32.345Z,94.30
2023-02-22T04:22:36.374Z,94.40
2023-02-22T04:24:39.153Z,94.40
2023-02-22T04:26:42.527Z,94.30
2023-02-22T04:28:45.224Z,94.40
2023-02-22T04:30:47.992Z,94.30
2023-02-22T04:32:51.034Z,94.40
2023-02-22T04:34:53.746Z,94.30
2023-02-22T04:36:56.476Z,94.30
2023-02-22T04:39:00.990Z,94.30
2023-02-22T04:41:03.801Z,94.40
2023-02-22T04:43:06.509Z,94.30
2023-02-22T04:45:10.784Z,94.40
2023-02-22T04:47:13.479Z,94.40
2023-02-22T04:49:16.208Z,94.40
2023-02-22T04:51:19.856Z,94.50
2023-02-22T04:53:22.857Z,94.40
2023-02-22T04:55:28.062Z,94.40
2023-02-22T04:57:30.882Z,94.40
2023-02-22T04:59:33.877Z,94.40
2023-02-22T05:01:37.941Z,94.40
2023-02-22T05:03:40.692Z,94.40
2023-02-22T05:05:43.397Z,94.40
2023-02-22T05:07:46.294Z,94.40
2023-02-22T05:09:49.033Z,94.40
2023-02-22T05:11:53.108Z,94.40
2023-02-22T05:13:55.868Z,94.40
2023-02-22T05:15:59.007Z,94.40
2023-02-22T05:18:01.870Z,94.40
2023-02-22T05:20:06.769Z,94.30
2023-02-22T05:22:09.488Z,94.30
2023-02-22T05:24:12.209Z,94.30
2023-02-22T05:26:14.903Z,94.40
2023-02-22T05:28:18.932Z,94.40
2023-02-22T05:30:24.246Z,94.40
2023-02-22T05:32:27.963Z,94.30
2023-02-22T05:34:30.824Z,94.40
2023-02-22T05:36:33.537Z,94.40
2023-02-22T05:38:43.415Z,94.30
2023-02-22T05:40:46.281Z,94.30
2023-02-22T05:42:49.214Z,94.20
2023-02-22T05:44:53.328Z,94.20
2023-02-22T05:46:56.031Z,94.10
2023-02-22T05:48:58.805Z,94.00
2023-02-22T05:51:01.522Z,94.00
2023-02-22T05:53:05.578Z,94.00
2023-02-22T05:55:09.975Z,93.90
2023-02-22T05:57:12.775Z,94.10
2023-02-22T05:59:16.160Z,94.10
2023-02-22T06:01:20.914Z,94.00
2023-02-22T06:03:23.691Z,94.00
2023-02-22T06:05:27.002Z,94.10
2023-02-22T06:07:30.049Z,94.10
2023-02-22T06:09:32.819Z,94.10
2023-02-22T06:11:35.521Z,94.00
2023-02-22T06:13:38.642Z,94.00
2023-02-22T06:15:41.333Z,93.90
2023-02-22T06:17:46.302Z,93.80
2023-02-22T06:19:49.034Z,93.70
2023-02-22T06:21:52.008Z,93.60
2023-02-22T06:23:54.786Z,93.60
2023-02-22T06:25:57.477Z,93.70
2023-02-22T06:28:01.356Z,93.60
2023-02-22T06:30:04.368Z,93.50
2023-02-22T06:32:07.080Z,93.50
2023-02-22T06:34:11.407Z,93.50
2023-02-22T06:36:14.162Z,93.50
2023-02-22T06:38:23.122Z,93.50
2023-02-22T06:40:29.312Z,93.50
2023-02-22T06:42:32.054Z,93.50
2023-02-22T06:44:34.777Z,93.40
2023-02-22T06:46:37.765Z,93.40
2023-02-22T06:48:41.042Z,93.40
2023-02-22T06:50:45.108Z,93.40
2023-02-22T06:52:48.453Z,93.50
2023-02-22T06:54:51.801Z,93.50
2023-02-22T06:56:54.522Z,93.50
2023-02-22T06:58:57.260Z,93.60
2023-02-22T07:01:02.550Z,93.70
2023-02-22T07:03:05.974Z,93.60
2023-02-22T07:05:08.941Z,93.70
2023-02-22T07:07:12.971Z,93.70
2023-02-22T07:09:16.614Z,93.70
2023-02-22T07:11:19.545Z,93.70
2023-02-22T07:13:22.343Z,93.70
2023-02-22T07:15:27.853Z,93.60
2023-02-22T07:17:30.602Z,93.60
2023-02-22T07:19:33.299Z,93.70
2023-02-22T07:21:35.970Z,93.70
2023-02-22T07:23:40.038Z,93.70
2023-02-22T07:25:43.720Z,93.70
2023-02-22T07:27:47.275Z,93.70
2023-02-22T07:29:50.011Z,93.70
2023-02-22T07:31:52.725Z,93.80
2023-02-22T07:33:55.490Z,93.80
2023-02-22T07:35:58.533Z,93.80
2023-02-22T07:38:01.358Z,93.80
2023-02-22T07:40:05.873Z,93.90
2023-02-22T07:42:08.918Z,93.90
2023-02-22T07:44:12.954Z,93.90
2023-02-22T07:46:15.900Z,93.90
2023-02-22T07:48:20.857Z,93.90
2023-02-22T07:50:25.177Z,93.80
2023-02-22T07:52:27.880Z,93.90
2023-02-22T07:54:30.570Z,93.90
2023-02-22T07:56:34.558Z,93.80
2023-02-22T07:58:37.292Z,93.80
2023-02-22T08:00:41.390Z,93.80
2023-02-22T08:02:44.668Z,93.80
2023-02-22T08:04:47.390Z,93.90
2023-02-22T08:06:50.202Z,94.00
2023-02-22T08:08:52.913Z,94.00
2023-02-22T08:10:57.169Z,94.10
2023-02-22T08:13:01.517Z,94.00
2023-02-22T08:15:05.127Z,94.00
2023-02-22T08:17:08.916Z,94.10
2023-02-22T08:19:11.790Z,94.10
2023-02-22T08:21:14.672Z,94.20
2023-02-22T08:23:19.239Z,94.10
2023-02-22T08:25:25.250Z,94.00
2023-02-22T08:27:29.425Z,93.90
2023-02-22T08:29:33.692Z,94.10
2023-02-22T08:31:36.388Z,94.10
2023-02-22T08:33:39.194Z,94.20
2023-02-22T08:35:41.995Z,94.20
2023-02-22T08:37:45.072Z,94.10
2023-02-22T08:39:47.793Z,93.80
2023-02-22T08:41:50.492Z,94.00
2023-02-22T08:43:53.499Z,94.00
2023-02-22T08:45:58.020Z,93.60
2023-02-22T08:48:00.958Z,93.70
2023-02-22T08:50:04.058Z,93.90
2023-02-22T08:52:06.822Z,94.10
2023-02-22T08:54:09.521Z,93.90
2023-02-22T08:56:12.730Z,94.00
2023-02-22T08:58:15.426Z,93.90
2023-02-22T09:00:19.387Z,93.90
2023-02-22T09:02:24.898Z,93.80
2023-02-22T09:04:27.642Z,93.50
2023-02-22T09:06:30.888Z,93.60
2023-02-22T09:08:33.643Z,93.70
2023-02-22T09:10:36.999Z,93.60
2023-02-22T09:12:39.689Z,93.40
2023-02-22T09:14:42.985Z,93.50
2023-02-22T09:16:46.312Z,93.60
2023-02-22T09:18:50.400Z,93.50
2023-02-22T09:20:53.441Z,93.30
2023-02-22T09:22:56.363Z,93.40
2023-02-22T09:25:02.596Z,93.30
2023-02-22T09:27:12.156Z,93.30
2023-02-22T09:29:15.029Z,93.00
2023-02-22T09:31:18.284Z,93.10
2023-02-22T09:33:22.524Z,93.10
2023-02-22T09:35:27.833Z,93.00
2023-02-22T09:37:30.912Z,92.90
2023-02-22T09:39:37.712Z,93.10
2023-02-22T09:41:47.669Z,93.20
2023-02-22T09:43:56.030Z,93.30
2023-02-22T09:46:24.329Z,93.20
2023-02-22T09:48:32.015Z,93.20
2023-02-22T09:50:42.229Z,93.30
2023-02-22T09:52:54.906Z,93.00
2023-02-22T09:55:08.150Z,92.90
2023-02-22T09:57:16.153Z,92.90
2023-02-22T09:59:26.969Z,93.00
2023-02-22T10:01:33.149Z,93.00
2023-02-22T10:03:41.729Z,92.80
2023-02-22T10:05:52.929Z,92.80
2023-02-22T10:08:01.040Z,92.60
2023-02-22T10:10:06.404Z,92.60
2023-02-22T10:12:15.652Z,92.60
2023-02-22T10:14:35.634Z,92.40
2023-02-22T10:16:44.073Z,92.70
2023-02-22T10:19:27.807Z,92.70
2023-02-22T10:21:57.625Z,92.60
2023-02-22T10:24:11.363Z,92.60
2023-02-22T10:26:17.734Z,92.60
2023-02-22T10:28:24.771Z,92.70
2023-02-22T10:30:33.864Z,92.70
2023-02-22T10:32:45.339Z,92.60
2023-02-22T10:34:51.415Z,92.50
2023-02-22T10:37:01.316Z,92.50
2023-02-22T10:39:16.468Z,92.20
2023-02-22T10:41:27.222Z,92.30
2023-02-22T10:43:30.646Z,92.20
2023-02-22T10:45:37.046Z,92.20
2023-02-22T10:47:40.812Z,92.30
2023-02-22T10:49:47.583Z,92.30
2023-02-22T10:52:01.337Z,92.40
2023-02-22T10:54:26.700Z,92.00
2023-02-22T10:56:29.528Z,91.80
2023-02-22T10:58:41.746Z,91.50
2023-02-22T11:00:46.654Z,91.50
2023-02-22T11:02:53.603Z,91.90
2023-02-22T11:04:58.558Z,91.80
2023-02-22T11:07:21.966Z,91.70
2023-02-22T11:09:24.747Z,91.40
2023-02-22T11:11:29.163Z,91.30
2023-02-22T11:13:34.366Z,91.70
2023-02-22T11:15:37.381Z,91.60
2023-02-22T11:17:41.619Z,91.30
2023-02-22T11:19:48.368Z,91.60
2023-02-22T11:21:53.011Z,91.40
2023-02-22T11:24:05.007Z,91.40
2023-02-22T11:26:11.073Z,91.30
2023-02-22T11:28:30.637Z,91.10
2023-02-22T11:30:35.462Z,91.00
2023-02-22T11:32:45.520Z,91.00
2023-02-22T11:34:52.818Z,91.20
2023-02-22T11:36:58.289Z,90.90
2023-02-22T11:39:01.138Z,90.90
2023-02-22T11:41:15.572Z,91.00
2023-02-22T11:43:19.962Z,91.00
2023-02-22T11:45:24.885Z,91.00
2023-02-22T11:47:27.713Z,90.80
2023-02-22T11:49:35.416Z,90.90
2023-02-22T11:51:49.747Z,90.90
2023-02-22T11:54:25.487Z,90.80
2023-02-22T11:56:38.206Z,90.40
2023-02-22T11:58:47.407Z,90.40
2023-02-22T12:00:58.615Z,90.20
2023-02-22T12:03:28.890Z,90.30
2023-02-22T12:05:44.801Z,90.30
2023-02-22T12:08:10.736Z,90.10
2023-02-22T12:10:30.272Z,89.90
2023-02-22T12:12:49.021Z,90.30
2023-02-22T12:15:00.292Z,90.10
2023-02-22T12:17:20.541Z,90.00
2023-02-22T12:19:31.720Z,89.50
2023-02-22T12:21:39.596Z,89.90
2023-02-22T12:23:47.010Z,89.60
2023-02-22T12:25:58.777Z,89.80
2023-02-22T12:28:24.207Z,89.10
2023-02-22T12:30:31.147Z,89.60
2023-02-22T12:32:41.589Z,89.20
2023-02-22T12:34:49.369Z,88.70
2023-02-22T12:36:57.053Z,88.00
2023-02-22T12:39:07.486Z,88.70
2023-02-22T12:41:18.358Z,88.80
2023-02-22T12:43:28.008Z,88.50
2023-02-22T12:45:35.726Z,88.50
2023-02-22T12:47:46.746Z,87.60
2023-02-22T12:49:55.914Z,87.20
2023-02-22T12:52:20.389Z,87.60
2023-02-22T12:54:38.900Z,87.70
2023-02-22T12:56:46.009Z,86.90
2023-02-22T12:58:56.723Z,86.40
2023-02-22T13:01:06.693Z,86.40
2023-02-22T13:03:31.742Z,85.90
2023-02-22T13:05:37.875Z,85.90
2023-02-22T13:07:50.148Z,86.40
2023-02-22T13:10:11.811Z,86.50
2023-02-22T13:12:20.078Z,85.90
2023-02-22T13:14:39.470Z,85.70
2023-02-22T13:16:52.637Z,85.30
2023-02-22T13:19:03.720Z,86.00
2023-02-22T13:21:16.968Z,85.00
2023-02-22T13:23:30.024Z,83.20
2023-02-22T13:25:41.131Z,83.70
2023-02-22T13:27:47.924Z,84.60
2023-02-22T13:29:57.378Z,84.70
2023-02-22T13:32:18.256Z,83.80
2023-02-22T13:34:40.093Z,83.00
2023-02-22T13:37:04.047Z,83.50
2023-02-22T13:39:54.024Z,84.30
2023-02-22T13:42:14.111Z,84.40
2023-02-22T13:44:34.677Z,84.30
2023-02-22T13:47:08.871Z,83.10
2023-02-22T13:49:31.074Z,83.30
2023-02-22T13:51:49.355Z,83.80
2023-02-22T13:53:57.354Z,83.30
2023-02-22T13:56:02.263Z,83.50
2023-02-22T13:58:07.450Z,83.60
2023-02-22T14:00:25.830Z,83.10
2023-02-22T14:03:02.120Z,82.80
2023-02-22T14:05:49.657Z,83.80
2023-02-22T14:07:52.713Z,83.50
2023-02-22T14:09:57.468Z,83.00
2023-02-22T14:12:00.488Z,83.20
2023-02-22T14:14:18.307Z,82.40
2023-02-22T14:16:26.953Z,83.30
2023-02-22T14:18:34.290Z,83.60
2023-02-22T14:20:38.197Z,83.20
2023-02-22T14:22:41.578Z,83.20
2023-02-22T14:24:46.941Z,83.30
2023-02-22T14:27:02.228Z,83.20
2023-02-22T14:29:17.344Z,83.40
2023-02-22T14:31:34.807Z,83.20
2023-02-22T14:33:55.726Z,82.80
2023-02-22T14:35:58.516Z,83.40
2023-02-22T14:38:03.013Z,83.60
2023-02-22T14:40:15.548Z,83.70
2023-02-22T14:42:23.267Z,83.70
2023-02-22T14:44:31.330Z,83.50
2023-02-22T14:46:40.534Z,84.00
2023-02-22T14:48:47.202Z,83.90
2023-02-22T14:50:55.293Z,83.90
2023-02-22T14:53:02.602Z,83.90
2023-02-22T14:55:17.037Z,84.00
2023-02-22T14:57:27.881Z,84.20
2023-02-22T14:59:34.720Z,84.20
2023-02-22T15:02:05.935Z,84.70
2023-02-22T15:04:18.470Z,84.80
2023-02-22T15:06:25.824Z,84.90
2023-02-22T15:08:29.191Z,85.00
2023-02-22T15:10:42.655Z,85.10
2023-02-22T15:12:52.825Z,85.30
2023-02-22T15:15:18.542Z,85.20
2023-02-22T15:17:24.755Z,85.20
2023-02-22T15:19:29.971Z,85.10
2023-02-22T15:21:35.025Z,85.40
2023-02-22T15:23:43.635Z,85.60
2023-02-22T15:25:50.398Z,85.70
2023-02-22T15:27:53.449Z,85.50
2023-02-22T15:30:04.412Z,85.40
2023-02-22T15:32:21.113Z,85.60
2023-02-22T15:34:29.022Z,85.50
2023-02-22T15:36:31.772Z,85.40
2023-02-22T15:38:35.854Z,85.40
2023-02-22T15:40:43.113Z,85.50
2023-02-22T15:42:49.146Z,85.60
2023-02-22T15:44:54.759Z,85.50
2023-02-22T15:46:58.419Z,85.50
2023-02-22T15:49:20.401Z,85.60
2023-02-22T15:51:23.094Z,85.80
2023-02-22T15:53:30.976Z,85.80
2023-02-22T15:55:37.722Z,85.80
2023-02-22T15:57:40.480Z,86.00
2023-02-22T15:59:46.519Z,86.10
2023-02-22T16:01:53.007Z,86.10
2023-02-22T16:03:59.216Z,86.30
2023-02-22T16:06:02.638Z,86.50
2023-02-22T16:08:15.626Z,86.70
2023-02-22T16:10:28.040Z,87.30
2023-02-22T16:12:32.110Z,87.60
2023-02-22T16:14:44.947Z,87.70
2023-02-22T16:16:47.756Z,87.70
2023-02-22T16:18:52.164Z,87.60
2023-02-22T16:21:17.083Z,87.60
2023-02-22T16:23:24.565Z,87.70
2023-02-22T16:25:33.113Z,87.90
2023-02-22T16:27:47.289Z,87.80
2023-02-22T16:30:23.252Z,88.00
2023-02-22T16:32:26.580Z,88.00
2023-02-22T16:34:29.328Z,88.20
2023-02-22T16:36:41.317Z,88.20
2023-02-22T16:38:47.122Z,88.40
2023-02-22T16:40:54.868Z,88.40
2023-02-22T16:42:59.903Z,88.40
2023-02-22T16:45:02.747Z,88.50
2023-02-22T16:47:05.575Z,88.50
2023-02-22T16:49:08.317Z,88.60
2023-02-22T16:51:17.694Z,88.70
2023-02-22T16:53:24.708Z,88.70
2023-02-22T16:55:27.807Z,88.80
2023-02-22T16:57:33.010Z,88.90
2023-02-22T16:59:40.491Z,89.00
2023-02-22T17:01:44.003Z,89.20
2023-02-22T17:03:47.847Z,89.10
2023-02-22T17:05:51.089Z,89.30
2023-02-22T17:07:53.832Z,89.70
2023-02-22T17:09:58.315Z,89.80
2023-02-22T17:12:02.191Z,89.80
2023-02-22T17:14:06.104Z,89.90
2023-02-22T17:16:14.408Z,90.00
2023-02-22T17:18:22.577Z,90.30
2023-02-22T17:20:30.048Z,90.20
2023-02-22T17:22:32.787Z,90.10
2023-02-22T17:24:35.962Z,90.20
2023-02-22T17:26:39.026Z,90.20
2023-02-22T17:28:43.611Z,90.20
2023-02-22T17:30:48.796Z,90.30
2023-02-22T17:32:53.427Z,90.30
2023-02-22T17:34:56.131Z,90.40
2023-02-22T17:36:59.012Z,90.50
2023-02-22T17:39:02.034Z,90.40
2023-02-22T17:41:07.421Z,90.50
2023-02-22T17:43:12.508Z,90.40
2023-02-22T17:45:15.411Z,90.40
2023-02-22T17:47:18.524Z,90.30
2023-02-22T17:49:22.606Z,90.30
2023-02-22T17:51:27.880Z,90.20
2023-02-22T17:53:30.652Z,90.20
2023-02-22T17:55:34.829Z,90.20
2023-02-22T17:57:39.755Z,90.30
2023-02-22T17:59:42.507Z,90.50
2023-02-22T18:01:45.266Z,90.60
2023-02-22T18:03:47.977Z,90.50
2023-02-22T18:05:56.004Z,90.70
2023-02-22T18:08:02.015Z,90.90
2023-02-22T18:10:05.528Z,90.80
2023-02-22T18:12:08.323Z,90.80
2023-02-22T18:14:12.183Z,90.90
2023-02-22T18:16:16.215Z,90.90
2023-02-22T18:18:19.268Z,90.80
2023-02-22T18:20:30.919Z,90.80
2023-02-22T18:22:35.027Z,90.70
2023-02-22T18:24:37.910Z,90.70
2023-02-22T18:26:40.664Z,90.60
2023-02-22T18:28:43.808Z,90.60
2023-02-22T18:30:46.583Z,90.60
2023-02-22T18:32:49.323Z,90.50
2023-02-22T18:34:52.153Z,90.60
2023-02-22T18:36:55.271Z,90.70
2023-02-22T18:38:59.356Z,90.80
2023-02-22T18:41:03.294Z,90.90
2023-02-22T18:43:06.110Z,90.80
2023-02-22T18:45:09.261Z,91.00
2023-02-22T18:47:12.006Z,91.00
2023-02-22T18:49:14.893Z,91.10
2023-02-22T18:51:18.604Z,91.20
2023-02-22T18:53:21.364Z,91.40
2023-02-22T18:55:25.526Z,91.50
2023-02-22T18:57:28.441Z,91.40
2023-02-22T18:59:31.351Z,91.40
2023-02-22T19:01:38.845Z,91.70
2023-02-22T19:03:41.908Z,91.80
2023-02-22T19:05:44.590Z,91.70
2023-02-22T19:07:47.662Z,91.70
2023-02-22T19:09:51.379Z,91.80
2023-02-22T19:11:55.448Z,91.70
2023-02-22T19:13:59.534Z,91.70
2023-02-22T19:16:03.968Z,91.60
2023-02-22T19:18:06.877Z,91.60
2023-02-22T19:20:10.687Z,91.40
2023-02-22T19:22:16.302Z,91.40
2023-02-22T19:24:20.478Z,91.40
2023-02-22T19:26:25.238Z,91.40
2023-02-22T19:28:33.945Z,91.50
2023-02-22T19:30:36.852Z,91.40
2023-02-22T19:32:44.569Z,91.40
2023-02-22T19:34:47.825Z,91.50
2023-02-22T19:36:51.054Z,91.50
2023-02-22T19:38:53.934Z,91.30
2023-02-22T19:40:56.693Z,91.30
2023-02-22T19:42:59.374Z,91.50
2023-02-22T19:45:03.503Z,91.60
2023-02-22T19:47:09.090Z,91.60
2023-02-22T19:49:11.864Z,91.60
2023-02-22T19:51:16.436Z,91.50
2023-02-22T19:53:19.486Z,91.70
2023-02-22T19:55:22.224Z,91.60
2023-02-22T19:57:25.062Z,91.70
2023-02-22T19:59:28.304Z,91.70
2023-02-22T20:01:33.923Z,91.70
2023-02-22T20:03:38.587Z,91.70
2023-02-22T20:05:42.210Z,91.70
2023-02-22T20:07:45.076Z,91.80
2023-02-22T20:09:49.653Z,91.80
2023-02-22T20:11:52.646Z,91.70
2023-02-22T20:13:56.413Z,91.60
2023-02-22T20:15:59.193Z,91.70
2023-02-22T20:18:03.209Z,91.70
2023-02-22T20:20:07.361Z,91.70
2023-02-22T20:22:10.207Z,91.80
2023-02-22T20:24:15.049Z,91.70
2023-02-22T20:26:19.593Z,91.80
2023-02-22T20:28:22.603Z,91.80
2023-02-22T20:30:25.466Z,91.60
2023-02-22T20:32:30.327Z,91.70
2023-02-22T20:34:36.146Z,91.70
2023-02-22T20:36:40.236Z,91.70
2023-02-22T20:38:49.112Z,91.70
2023-02-22T20:40:51.886Z,91.80
2023-02-22T20:42:56.221Z,91.90
2023-02-22T20:45:01.815Z,91.80
2023-02-22T20:47:06.112Z,91.80
2023-02-22T20:49:11.113Z,92.00
2023-02-22T20:51:16.658Z,92.00
2023-02-22T20:53:19.578Z,91.90
2023-02-22T20:55:22.366Z,91.90
2023-02-22T20:57:25.111Z,91.90
2023-02-22T20:59:28.914Z,91.90
2023-02-22T21:01:32.370Z,91.80
2023-02-22T21:03:35.506Z,91.90
2023-02-22T21:05:42.867Z,91.90
2023-02-22T21:07:46.883Z,91.80
2023-02-22T21:09:49.828Z,91.90
2023-02-22T21:11:52.587Z,92.10
2023-02-22T21:13:55.636Z,92.00
2023-02-22T21:15:58.349Z,91.80
2023-02-22T21:18:01.140Z,91.80
2023-02-22T21:20:11.943Z,91.80
2023-02-22T21:22:14.699Z,92.10
2023-02-22T21:24:18.759Z,92.10
2023-02-22T21:26:24.176Z,92.00
2023-02-22T21:28:32.379Z,92.20
2023-02-22T21:30:45.661Z,92.40
2023-02-22T21:32:53.802Z,92.20
2023-02-22T21:34:56.556Z,92.10
2023-02-22T21:36:59.745Z,92.20
2023-02-22T21:39:10.510Z,92.10
2023-02-22T21:41:16.524Z,92.20
2023-02-22T21:43:19.318Z,92.20
2023-02-22T21:45:24.001Z,92.10
2023-02-22T21:47:27.690Z,92.00
2023-02-22T21:49:30.603Z,91.90
2023-02-22T21:51:34.440Z,91.90
2023-02-22T21:53:37.193Z,92.00
2023-02-22T21:55:40.862Z,92.20
2023-02-22T21:57:44.979Z,92.20
2023-02-22T21:59:48.450Z,92.20
2023-02-22T22:01:55.582Z,92.40
2023-02-22T22:04:00.382Z,92.40
2023-02-22T22:06:09.792Z,92.80
2023-02-22T22:08:19.201Z,92.50
2023-02-22T22:10:27.174Z,92.30
2023-02-22T22:12:38.692Z,92.20
2023-02-22T22:14:43.334Z,92.10
2023-02-22T22:16:48.535Z,92.10
2023-02-22T22:18:51.229Z,92.20
2023-02-22T22:20:54.056Z,92.20
2023-02-22T22:22:56.851Z,92.30
2023-02-22T22:24:59.658Z,92.30
2023-02-22T22:27:04.902Z,92.40
2023-02-22T22:29:10.313Z,92.40
2023-02-22T22:31:16.118Z,92.30
2023-02-22T22:33:19.029Z,92.40
2023-02-22T22:35:22.662Z,92.30
2023-02-22T22:37:25.560Z,92.30
2023-02-22T22:39:28.690Z,92.30
2023-02-22T22:41:31.366Z,92.60
2023-02-22T22:43:36.104Z,92.60
2023-02-22T22:45:38.854Z,92.80
2023-02-22T22:47:45.901Z,92.70
2023-02-22T22:49:50.159Z,92.90
2023-02-22T22:51:54.410Z,93.00
2023-02-22T22:53:59.214Z,92.90
2023-02-22T22:56:04.629Z,92.90
2023-02-22T22:58:09.939Z,92.90
2023-02-22T23:00:31.927Z,92.90
2023-02-22T23:02:34.718Z,92.70
2023-02-22T23:04:38.919Z,92.60
2023-02-22T23:06:44.043Z,92.50
2023-02-22T23:08:46.759Z,92.50
2023-02-22T23:10:49.481Z,92.60
2023-02-22T23:12:53.641Z,92.60
2023-02-22T23:14:58.294Z,92.50
2023-02-22T23:17:03.414Z,92.50
2023-02-22T23:19:08.743Z,92.50
2023-02-22T23:21:12.922Z,92.40
2023-02-22T23:23:15.647Z,92.40
2023-02-22T23:25:19.725Z,92.30
2023-02-22T23:27:23.664Z,92.10
2023-02-22T23:29:27.057Z,92.30
2023-02-22T23:31:31.957Z,92.40
2023-02-22T23:33:34.738Z,92.40
2023-02-22T23:35:37.500Z,92.40
2023-02-22T23:37:41.704Z,92.40
2023-02-22T23:39:44.368Z,92.50
2023-02-22T23:41:47.142Z,92.60
2023-02-22T23:43:51.680Z,92.50
2023-02-22T23:45:57.062Z,92.50
2023-02-22T23:48:01.581Z,92.50
2023-02-22T23:50:13.427Z,92.50
2023-02-22T23:52:24.039Z,92.50
2023-02-22T23:54:35.942Z,92.50
2023-02-22T23:56:40.440Z,92.40
2023-02-22T23:58:46.978Z,92.50
